createdAt,value
2024-02-22T00:00:22.409Z,11.90
2024-02-22T00:02:51.269Z,11.90
2024-02-22T00:05:19.033Z,11.90
2024-02-22T00:07:46.945Z,11.90
2024-02-22T00:10:14.961Z,11.90
2024-02-22T00:12:42.887Z,11.90
2024-02-22T00:15:13.441Z,11.90
2024-02-22T00:17:41.154Z,11.90
2024-02-22T00:20:09.663Z,11.90
2024-02-22T00:22:37.262Z,11.90
2024-02-22T00:25:05.446Z,11.90
2024-02-22T00:27:34.890Z,11.90
2024-02-22T00:30:03.409Z,11.90
2024-02-22T00:32:31.525Z,11.90
2024-02-22T00:34:59.394Z,11.90
2024-02-22T00:37:28.848Z,11.90
2024-02-22T00:39:56.494Z,11.90
2024-02-22T00:42:24.064Z,11.90
2024-02-22T00:44:52.550Z,11.90
2024-02-22T00:47:20.120Z,11.90
2024-02-22T00:49:47.693Z,11.90
2024-02-22T00:52:15.279Z,11.90
2024-02-22T00:54:44.042Z,11.80
2024-02-22T00:57:11.886Z,11.80
2024-02-22T00:59:39.557Z,11.80
2024-02-22T01:02:07.145Z,11.80
2024-02-22T01:04:34.943Z,11.80
2024-02-22T01:07:02.790Z,11.70
2024-02-22T01:09:30.364Z,11.70
2024-02-22T01:11:59.700Z,11.70
2024-02-22T01:14:27.266Z,11.70
2024-02-22T01:16:54.784Z,11.60
2024-02-22T01:19:23.199Z,11.60
2024-02-22T01:21:52.034Z,11.60
2024-02-22T01:24:19.540Z,11.60
2024-02-22T01:26:47.052Z,11.60
2024-02-22T01:29:14.702Z,11.50
2024-02-22T01:31:42.273Z,11.50
2024-02-22T01:34:09.860Z,11.50
2024-02-22T01:36:37.394Z,11.50
2024-02-22T01:39:07.322Z,11.50
2024-02-22T01:41:34.984Z,11.40
2024-02-22T01:44:02.741Z,11.40
2024-02-22T01:46:30.756Z,11.40
2024-02-22T01:48:58.803Z,11.40
2024-02-22T01:51:27.583Z,11.40
2024-02-22T01:53:55.463Z,11.40
2024-02-22T01:56:23.650Z,11.30
2024-02-22T01:58:51.842Z,11.30
2024-02-22T02:01:25.248Z,11.30
2024-02-22T02:03:54.663Z,11.30
2024-02-22T02:06:22.330Z,11.30
2024-02-22T02:08:50.138Z,11.30
2024-02-22T02:11:17.971Z,11.30
2024-02-22T02:13:46.661Z,11.20
2024-02-22T02:16:14.127Z,11.20
2024-02-22T02:18:41.982Z,11.20
2024-02-22T02:21:37.394Z,11.20
2024-02-22T02:24:21.257Z,11.20
2024-02-22T02:26:49.117Z,11.20
2024-02-22T02:29:16.856Z,11.20
2024-02-22T02:31:44.633Z,11.20
2024-02-22T02:34:12.964Z,11.20
2024-02-22T02:36:40.454Z,11.20
2024-02-22T02:39:08.047Z,11.20
2024-02-22T02:41:36.104Z,11.20
2024-02-22T02:44:03.711Z,11.20
2024-02-22T02:46:31.797Z,11.20
2024-02-22T02:48:59.352Z,11.10
2024-02-22T02:51:26.876Z,11.10
2024-02-22T02:53:55.133Z,11.10
2024-02-22T02:56:23.310Z,11.10
2024-02-22T02:58:50.941Z,11.10
2024-02-22T03:01:18.668Z,11.10
2024-02-22T03:03:46.265Z,11.10
2024-02-22T03:06:13.981Z,11.10
2024-02-22T03:08:42.580Z,11.10
2024-02-22T03:11:10.297Z,11.10
2024-02-22T03:13:38.091Z,11.10
2024-02-22T03:16:06.221Z,11.10
2024-02-22T03:18:34.992Z,11.10
2024-02-22T03:21:02.882Z,11.10
2024-02-22T03:23:30.527Z,11.10
2024-02-22T03:25:58.704Z,11.10
2024-02-22T03:28:26.156Z,11.00
2024-02-22T03:30:54.025Z,11.10
2024-02-22T03:33:22.177Z,11.10
2024-02-22T03:35:50.159Z,11.10
2024-02-22T03:38:17.948Z,11.00
2024-02-22T03:40:46.580Z,11.00
2024-02-22T03:43:15.271Z,11.00
2024-02-22T03:45:43.220Z,11.00
2024-02-22T03:48:11.160Z,11.00
2024-02-22T03:50:39.453Z,11.10
2024-02-22T03:53:08.409Z,11.00
2024-02-22T03:55:35.979Z,11.00
2024-02-22T03:58:03.621Z,11.00
2024-02-22T04:00:31.792Z,11.00
2024-02-22T04:03:00.054Z,11.00
2024-02-22T04:05:27.742Z,11.00
2024-02-22T04:07:55.550Z,11.00
2024-02-22T04:10:23.079Z,11.00
2024-02-22T04:12:51.071Z,11.00
2024-02-22T04:15:18.662Z,11.00
2024-02-22T04:17:46.985Z,11.00
2024-02-22T04:20:14.794Z,11.10
2024-02-22T04:22:50.648Z,11.10
2024-02-22T04:25:18.490Z,11.10
2024-02-22T04:27:45.991Z,11.10
2024-02-22T04:30:15.137Z,11.10
2024-02-22T04:32:43.394Z,11.10
2024-02-22T04:35:12.015Z,11.20
2024-02-22T04:37:41.712Z,11.10
2024-02-22T04:40:09.757Z,11.20
2024-02-22T04:42:37.424Z,11.20
2024-02-22T04:45:05.986Z,11.20
2024-02-22T04:47:36.572Z,11.20
2024-02-22T04:50:05.291Z,11.20
2024-02-22T04:52:32.843Z,11.20
2024-02-22T04:55:04.401Z,11.20
2024-02-22T04:57:32.390Z,11.20
2024-02-22T05:00:00.247Z,11.20
2024-02-22T05:02:28.567Z,11.20
2024-02-22T05:04:56.231Z,11.20
2024-02-22T05:07:23.912Z,11.20
2024-02-22T05:09:51.603Z,11.20
2024-02-22T05:12:19.251Z,11.30
2024-02-22T05:14:47.209Z,11.20
2024-02-22T05:17:15.293Z,11.30
2024-02-22T05:19:43.691Z,11.30
2024-02-22T05:22:11.214Z,11.30
2024-02-22T05:24:38.767Z,11.30
2024-02-22T05:27:06.334Z,11.30
2024-02-22T05:29:33.934Z,11.30
2024-02-22T05:32:01.807Z,11.30
2024-02-22T05:34:29.469Z,11.40
2024-02-22T05:36:57.436Z,11.40
2024-02-22T05:39:25.041Z,11.40
2024-02-22T05:41:52.867Z,11.40
2024-02-22T05:44:20.879Z,11.40
2024-02-22T05:46:48.779Z,11.40
2024-02-22T05:49:17.358Z,11.40
2024-02-22T05:51:44.918Z,11.40
2024-02-22T05:54:12.460Z,11.40
2024-02-22T05:56:39.972Z,11.40
2024-02-22T05:59:07.539Z,11.40
2024-02-22T06:01:35.477Z,11.40
2024-02-22T06:04:04.461Z,11.40
2024-02-22T06:06:32.534Z,11.30
2024-02-22T06:09:00.092Z,11.40
2024-02-22T06:11:27.709Z,11.40
2024-02-22T06:13:55.328Z,11.40
2024-02-22T06:16:22.929Z,11.40
2024-02-22T06:18:51.625Z,11.40
2024-02-22T06:21:19.907Z,11.40
2024-02-22T06:23:47.391Z,11.40
2024-02-22T06:26:15.352Z,11.40
2024-02-22T06:28:43.063Z,11.40
2024-02-22T06:31:10.855Z,11.40
2024-02-22T06:33:40.624Z,11.50
2024-02-22T06:36:11.019Z,11.40
2024-02-22T06:38:40.813Z,11.40
2024-02-22T06:41:08.543Z,11.40
2024-02-22T06:43:36.424Z,11.40
2024-02-22T06:46:04.947Z,11.50
2024-02-22T06:48:33.425Z,11.40
2024-02-22T06:51:01.059Z,11.40
2024-02-22T06:53:28.614Z,11.50
2024-02-22T06:55:56.153Z,11.50
2024-02-22T06:58:23.805Z,11.50
2024-02-22T07:00:51.334Z,11.40
2024-02-22T07:03:19.028Z,11.50
2024-02-22T07:05:46.508Z,11.40
2024-02-22T07:08:14.149Z,11.40
2024-02-22T07:10:42.173Z,11.50
2024-02-22T07:13:09.796Z,11.50
2024-02-22T07:15:37.403Z,11.40
2024-02-22T07:18:06.220Z,11.50
2024-02-22T07:20:33.857Z,11.40
2024-02-22T07:23:02.139Z,11.40
2024-02-22T07:25:30.001Z,11.50
2024-02-22T07:27:57.604Z,11.40
2024-02-22T07:30:28.722Z,11.50
2024-02-22T07:32:56.586Z,11.50
2024-02-22T07:35:24.641Z,11.50
2024-02-22T07:37:52.284Z,11.50
2024-02-22T07:40:20.052Z,11.50
2024-02-22T07:42:47.520Z,11.50
2024-02-22T07:45:15.540Z,11.50
2024-02-22T07:47:43.116Z,11.60
2024-02-22T07:50:12.390Z,11.60
2024-02-22T07:52:41.189Z,11.60
2024-02-22T07:55:09.226Z,11.60
2024-02-22T07:57:36.755Z,11.60
2024-02-22T08:00:04.961Z,11.60
2024-02-22T08:02:36.357Z,11.60
2024-02-22T08:05:04.461Z,11.70
2024-02-22T08:07:32.147Z,11.70
2024-02-22T08:09:59.925Z,11.70
2024-02-22T08:12:27.454Z,11.70
2024-02-22T08:14:55.485Z,11.70
2024-02-22T08:17:23.096Z,11.70
2024-02-22T08:19:50.719Z,11.70
2024-02-22T08:22:18.950Z,11.80
2024-02-22T08:24:47.331Z,11.80
2024-02-22T08:27:14.937Z,11.80
2024-02-22T08:29:49.133Z,11.80
2024-02-22T08:32:18.033Z,11.80
2024-02-22T08:34:46.979Z,11.80
2024-02-22T08:37:14.511Z,11.90
2024-02-22T08:39:41.980Z,11.90
2024-02-22T08:42:09.479Z,11.90
2024-02-22T08:44:37.053Z,12.00
2024-02-22T08:47:05.296Z,12.00
2024-02-22T08:49:34.129Z,12.00
2024-02-22T08:52:05.413Z,12.00
2024-02-22T08:54:33.511Z,12.10
2024-02-22T08:57:00.970Z,12.10
2024-02-22T08:59:29.348Z,12.20
2024-02-22T09:01:57.899Z,12.20
2024-02-22T09:04:28.159Z,12.20
2024-02-22T09:06:56.064Z,12.10
2024-02-22T09:09:23.840Z,12.20
2024-02-22T09:11:51.964Z,12.20
2024-02-22T09:14:19.649Z,12.30
2024-02-22T09:16:47.217Z,12.30
2024-02-22T09:19:14.874Z,12.30
2024-02-22T09:21:42.433Z,12.30
2024-02-22T09:24:10.478Z,12.30
2024-02-22T09:26:37.985Z,12.30
2024-02-22T09:29:05.573Z,12.30
2024-02-22T09:31:33.509Z,12.30
2024-02-22T09:34:02.195Z,12.30
2024-02-22T09:36:30.114Z,12.40
2024-02-22T09:38:57.666Z,12.40
2024-02-22T09:41:26.682Z,12.40
2024-02-22T09:43:55.134Z,12.40
2024-02-22T09:46:23.630Z,12.40
2024-02-22T09:48:52.469Z,12.40
2024-02-22T09:51:23.114Z,12.50
2024-02-22T09:53:51.777Z,12.50
2024-02-22T09:56:19.425Z,12.50
2024-02-22T09:58:50.026Z,12.50
2024-02-22T10:01:18.473Z,12.50
2024-02-22T10:03:46.259Z,12.50
2024-02-22T10:06:20.878Z,12.60
2024-02-22T10:08:49.051Z,12.60
2024-02-22T10:11:20.884Z,12.60
2024-02-22T10:13:49.115Z,12.70
2024-02-22T10:16:16.808Z,12.70
2024-02-22T10:18:45.241Z,12.70
2024-02-22T10:21:17.180Z,12.80
2024-02-22T10:23:46.297Z,12.80
2024-02-22T10:26:14.421Z,12.90
2024-02-22T10:28:42.158Z,12.90
2024-02-22T10:31:09.922Z,13.00
2024-02-22T10:33:39.209Z,13.00
2024-02-22T10:36:08.934Z,13.00
2024-02-22T10:38:37.970Z,13.10
2024-02-22T10:41:07.238Z,13.10
2024-02-22T10:43:36.255Z,13.10
2024-02-22T10:46:07.591Z,13.10
2024-02-22T10:48:37.962Z,13.10
2024-02-22T10:51:06.643Z,13.20
2024-02-22T10:53:38.413Z,13.20
2024-02-22T10:56:07.586Z,13.20
2024-02-22T10:58:39.765Z,13.20
2024-02-22T11:01:09.668Z,13.30
2024-02-22T11:03:39.390Z,13.30
2024-02-22T11:06:08.080Z,13.30
2024-02-22T11:08:35.673Z,13.30
2024-02-22T11:11:08.722Z,13.40
2024-02-22T11:13:37.854Z,13.40
2024-02-22T11:16:17.584Z,13.50
2024-02-22T11:18:47.719Z,13.50
2024-02-22T11:21:15.773Z,13.50
2024-02-22T11:23:44.167Z,13.50
2024-02-22T11:26:12.518Z,13.50
2024-02-22T11:28:40.119Z,13.60
2024-02-22T11:31:12.370Z,13.60
2024-02-22T11:33:41.572Z,13.60
2024-02-22T11:36:10.236Z,13.70
2024-02-22T11:38:38.183Z,13.70
2024-02-22T11:41:06.842Z,13.70
2024-02-22T11:43:36.434Z,13.70
2024-02-22T11:46:06.339Z,13.70
2024-02-22T11:48:35.041Z,13.70
2024-02-22T11:51:05.348Z,13.70
2024-02-22T11:53:32.879Z,13.70
2024-02-22T11:56:00.425Z,13.70
2024-02-22T11:58:28.136Z,13.70
2024-02-22T12:00:55.938Z,13.70
2024-02-22T12:03:23.639Z,13.70
2024-02-22T12:05:51.529Z,13.70
2024-02-22T12:08:20.275Z,13.70
2024-02-22T12:10:55.232Z,13.70
2024-02-22T12:13:22.926Z,13.70
2024-02-22T12:16:04.111Z,13.70
2024-02-22T12:18:32.134Z,13.60
2024-02-22T12:21:01.068Z,13.50
2024-02-22T12:23:30.904Z,13.40
2024-02-22T12:26:07.485Z,13.30
2024-02-22T12:28:37.158Z,13.10
2024-02-22T12:31:05.882Z,13.00
2024-02-22T12:33:35.206Z,12.80
2024-02-22T12:36:04.774Z,12.60
2024-02-22T12:38:32.543Z,12.50
2024-02-22T12:41:00.378Z,12.40
2024-02-22T12:43:28.907Z,12.30
2024-02-22T12:45:56.440Z,12.20
2024-02-22T12:48:24.104Z,12.20
2024-02-22T12:50:51.902Z,12.10
2024-02-22T12:53:19.587Z,12.00
2024-02-22T12:55:48.680Z,12.00
2024-02-22T12:58:16.340Z,11.90
2024-02-22T13:00:44.442Z,11.90
2024-02-22T13:03:12.321Z,11.90
2024-02-22T13:05:39.869Z,11.90
2024-02-22T13:08:15.264Z,11.90
2024-02-22T13:10:47.929Z,11.90
2024-02-22T13:13:16.857Z,11.90
2024-02-22T13:15:47.192Z,11.90
2024-02-22T13:18:16.173Z,11.90
2024-02-22T13:20:44.469Z,11.90
2024-02-22T13:23:12.084Z,11.90
2024-02-22T13:25:39.759Z,11.90
2024-02-22T13:28:07.362Z,11.80
2024-02-22T13:30:36.530Z,11.80
2024-02-22T13:33:04.322Z,11.80
2024-02-22T13:35:32.746Z,11.70
2024-02-22T13:38:00.656Z,11.80
2024-02-22T13:40:29.151Z,11.70
2024-02-22T13:42:56.764Z,11.70
2024-02-22T13:45:24.226Z,11.80
2024-02-22T13:47:53.176Z,11.70
2024-02-22T13:50:21.768Z,11.70
2024-02-22T13:52:49.922Z,11.70
2024-02-22T13:55:18.722Z,11.70
2024-02-22T13:57:47.000Z,11.70
2024-02-22T14:00:15.863Z,11.70
2024-02-22T14:02:44.428Z,11.70
2024-02-22T14:05:12.243Z,11.70
2024-02-22T14:07:42.843Z,11.70
2024-02-22T14:10:10.735Z,11.60
2024-02-22T14:12:38.235Z,11.60
2024-02-22T14:15:06.159Z,11.60
2024-02-22T14:17:35.060Z,11.50
2024-02-22T14:20:03.941Z,11.50
2024-02-22T14:22:31.611Z,11.50
2024-02-22T14:24:59.120Z,11.50
2024-02-22T14:27:32.257Z,11.40
2024-02-22T14:29:59.912Z,11.40
2024-02-22T14:32:28.213Z,11.30
2024-02-22T14:34:56.758Z,11.30
2024-02-22T14:37:24.914Z,11.30
2024-02-22T14:39:52.564Z,11.30
2024-02-22T14:42:21.175Z,11.20
2024-02-22T14:44:48.952Z,11.20
2024-02-22T14:47:16.615Z,11.20
2024-02-22T14:49:45.849Z,11.10
2024-02-22T14:52:13.685Z,11.10
2024-02-22T14:54:44.391Z,11.00
2024-02-22T14:57:12.960Z,10.90
2024-02-22T14:59:40.556Z,10.90
2024-02-22T15:02:08.190Z,10.80
2024-02-22T15:04:36.086Z,10.70
2024-02-22T15:07:05.565Z,10.60
2024-02-22T15:09:33.722Z,10.50
2024-02-22T15:12:02.980Z,10.40
2024-02-22T15:14:31.915Z,10.30
2024-02-22T15:16:59.798Z,10.20
2024-02-22T15:19:27.729Z,10.10
2024-02-22T15:21:55.322Z,10.00
2024-02-22T15:24:23.165Z,10.00
2024-02-22T15:26:53.069Z,9.90
2024-02-22T15:29:20.658Z,9.80
2024-02-22T15:31:48.481Z,9.80
2024-02-22T15:34:16.362Z,9.80
2024-02-22T15:36:44.890Z,9.80
2024-02-22T15:39:14.521Z,9.80
2024-02-22T15:41:42.072Z,9.70
2024-02-22T15:44:10.312Z,9.70
2024-02-22T15:46:39.021Z,9.60
2024-02-22T15:49:11.878Z,9.60
2024-02-22T15:51:41.616Z,9.60
2024-02-22T15:54:09.266Z,9.50
2024-02-22T15:56:36.837Z,9.40
2024-02-22T15:59:04.342Z,9.40
2024-02-22T16:01:31.965Z,9.40
2024-02-22T16:04:02.494Z,9.30
2024-02-22T16:06:32.374Z,9.30
2024-02-22T16:09:00.610Z,9.30
2024-02-22T16:11:28.953Z,9.30
2024-02-22T16:13:57.966Z,9.20
2024-02-22T16:16:25.836Z,9.20
2024-02-22T16:18:57.847Z,9.20
2024-02-22T16:21:26.430Z,9.20
2024-02-22T16:23:55.992Z,9.10
2024-02-22T16:26:23.826Z,9.10
2024-02-22T16:28:51.558Z,9.00
2024-02-22T16:31:19.261Z,9.00
2024-02-22T16:33:47.109Z,8.90
2024-02-22T16:36:15.346Z,8.80
2024-02-22T16:38:49.806Z,8.80
2024-02-22T16:41:30.942Z,8.70
2024-02-22T16:44:00.166Z,8.60
2024-02-22T16:46:27.902Z,8.60
2024-02-22T16:48:56.652Z,8.50
2024-02-22T16:51:24.718Z,8.40
2024-02-22T16:53:52.288Z,8.30
2024-02-22T16:56:23.024Z,8.30
2024-02-22T16:58:50.970Z,8.20
2024-02-22T17:01:19.777Z,8.10
2024-02-22T17:03:47.459Z,7.90
2024-02-22T17:06:15.100Z,7.90
2024-02-22T17:08:44.974Z,7.80
2024-02-22T17:11:13.530Z,7.70
2024-02-22T17:13:42.030Z,7.60
2024-02-22T17:16:09.596Z,7.60
2024-02-22T17:18:38.041Z,7.50
2024-02-22T17:21:06.302Z,7.50
2024-02-22T17:23:33.804Z,7.40
2024-02-22T17:26:01.608Z,7.30
2024-02-22T17:28:30.624Z,7.30
2024-02-22T17:30:58.167Z,7.30
2024-02-22T17:33:26.461Z,7.20
2024-02-22T17:35:54.291Z,7.10
2024-02-22T17:38:22.034Z,7.00
2024-02-22T17:40:50.910Z,7.00
2024-02-22T17:43:19.256Z,7.00
2024-02-22T17:45:46.841Z,6.90
2024-02-22T17:48:16.089Z,6.90
2024-02-22T17:50:49.873Z,6.80
2024-02-22T17:53:18.698Z,6.80
2024-02-22T17:55:46.788Z,6.80
2024-02-22T17:58:14.522Z,6.80
2024-02-22T18:00:43.440Z,6.80
2024-02-22T18:03:11.163Z,6.80
2024-02-22T18:05:41.592Z,6.80
2024-02-22T18:08:09.600Z,6.70
2024-02-22T18:10:38.438Z,6.70
2024-02-22T18:13:06.129Z,6.70
2024-02-22T18:15:34.275Z,6.70
2024-02-22T18:18:04.235Z,6.70
2024-02-22T18:20:36.253Z,6.70
2024-02-22T18:23:05.703Z,6.70
2024-02-22T18:25:35.123Z,6.60
2024-02-22T18:28:05.432Z,6.60
2024-02-22T18:30:36.107Z,6.60
2024-02-22T18:33:04.390Z,6.60
2024-02-22T18:35:32.363Z,6.60
2024-02-22T18:37:59.989Z,6.60
2024-02-22T18:40:31.658Z,6.60
2024-02-22T18:43:00.282Z,6.60
2024-02-22T18:45:27.875Z,6.60
2024-02-22T18:47:56.067Z,6.60
2024-02-22T18:50:23.988Z,6.60
2024-02-22T18:52:51.937Z,6.60
2024-02-22T18:55:19.404Z,6.60
2024-02-22T18:57:47.006Z,6.60
2024-02-22T19:00:15.024Z,6.60
2024-02-22T19:02:43.023Z,6.50
2024-02-22T19:05:11.391Z,6.60
2024-02-22T19:07:39.925Z,6.60
2024-02-22T19:10:09.844Z,6.60
2024-02-22T19:12:38.186Z,6.60
2024-02-22T19:15:06.788Z,6.60
2024-02-22T19:17:35.862Z,6.60
2024-02-22T19:20:04.215Z,6.60
2024-02-22T19:22:32.986Z,6.60
2024-02-22T19:25:03.785Z,6.60
2024-02-22T19:27:33.726Z,6.60
2024-02-22T19:30:02.767Z,6.60
2024-02-22T19:32:30.417Z,6.60
2024-02-22T19:34:58.401Z,6.60
2024-02-22T19:37:26.334Z,6.60
2024-02-22T19:39:55.196Z,6.70
2024-02-22T19:42:22.952Z,6.70
2024-02-22T19:44:50.489Z,6.70
2024-02-22T19:47:18.096Z,6.70
2024-02-22T19:49:46.037Z,6.70
2024-02-22T19:52:13.669Z,6.70
2024-02-22T19:54:41.324Z,6.70
2024-02-22T19:57:08.961Z,6.70
2024-02-22T19:59:36.374Z,6.70
2024-02-22T20:02:05.875Z,6.70
2024-02-22T20:04:33.680Z,6.70
2024-02-22T20:07:01.318Z,6.70
2024-02-22T20:09:30.493Z,6.60
2024-02-22T20:11:58.140Z,6.60
2024-02-22T20:14:25.868Z,6.60
2024-02-22T20:16:55.088Z,6.60
2024-02-22T20:19:22.778Z,6.60
2024-02-22T20:21:53.696Z,6.60
2024-02-22T20:24:21.165Z,6.60
2024-02-22T20:26:48.669Z,6.60
2024-02-22T20:29:16.257Z,6.60
2024-02-22T20:31:43.946Z,6.60
2024-02-22T20:34:11.565Z,6.60
2024-02-22T20:36:40.202Z,6.60
2024-02-22T20:39:09.539Z,6.60
2024-02-22T20:41:37.508Z,6.60
2024-02-22T20:44:05.876Z,6.50
2024-02-22T20:46:33.676Z,6.50
2024-02-22T20:49:01.545Z,6.50
2024-02-22T20:51:30.837Z,6.50
2024-02-22T20:53:58.874Z,6.50
2024-02-22T20:56:28.995Z,6.50
2024-02-22T20:58:56.715Z,6.50
2024-02-22T21:01:24.439Z,6.50
2024-02-22T21:03:52.151Z,6.50
2024-02-22T21:06:24.763Z,6.50
2024-02-22T21:08:52.548Z,6.40
2024-02-22T21:11:20.476Z,6.50
2024-02-22T21:13:48.256Z,6.40
2024-02-22T21:16:30.111Z,6.40
2024-02-22T21:18:58.127Z,6.50
2024-02-22T21:21:26.067Z,6.40
2024-02-22T21:23:53.732Z,6.40
2024-02-22T21:26:21.415Z,6.40
2024-02-22T21:28:49.357Z,6.40
2024-02-22T21:31:17.233Z,6.40
2024-02-22T21:33:45.993Z,6.40
2024-02-22T21:36:16.114Z,6.40
2024-02-22T21:38:43.857Z,6.40
2024-02-22T21:41:14.768Z,6.30
2024-02-22T21:43:42.519Z,6.30
2024-02-22T21:46:10.015Z,6.30
2024-02-22T21:48:37.523Z,6.30
2024-02-22T21:51:08.582Z,6.20
2024-02-22T21:53:38.065Z,6.20
2024-02-22T21:56:06.723Z,6.30
2024-02-22T21:58:37.355Z,6.30
2024-02-22T22:01:06.153Z,6.30
2024-02-22T22:03:34.172Z,6.30
2024-02-22T22:06:03.163Z,6.20
2024-02-22T22:08:31.109Z,6.20
2024-02-22T22:10:59.778Z,6.20
2024-02-22T22:13:27.360Z,6.20
2024-02-22T22:15:54.889Z,6.20
2024-02-22T22:18:22.503Z,6.20
2024-02-22T22:20:50.967Z,6.20
2024-02-22T22:23:18.522Z,6.10
2024-02-22T22:25:46.390Z,6.10
2024-02-22T22:28:14.083Z,6.10
2024-02-22T22:30:41.609Z,6.10
2024-02-22T22:33:09.257Z,6.10
2024-02-22T22:35:37.036Z,6.10
2024-02-22T22:38:04.904Z,6.10
2024-02-22T22:40:32.422Z,6.10
2024-02-22T22:43:00.216Z,6.10
2024-02-22T22:45:27.772Z,6.10
2024-02-22T22:47:56.032Z,6.00
2024-02-22T22:50:24.359Z,6.00
2024-02-22T22:52:52.005Z,6.00
2024-02-22T22:55:19.468Z,6.00
2024-02-22T22:57:46.953Z,6.00
2024-02-22T23:00:24.190Z,6.00
2024-02-22T23:02:55.524Z,6.00
2024-02-22T23:05:26.813Z,6.00
2024-02-22T23:07:55.515Z,6.00
2024-02-22T23:10:25.394Z,6.00
2024-02-22T23:12:53.158Z,5.90
2024-02-22T23:15:21.883Z,5.90
2024-02-22T23:17:50.369Z,5.90
2024-02-22T23:20:19.173Z,5.90
2024-02-22T23:22:46.810Z,5.90
2024-02-22T23:25:17.925Z,5.90
2024-02-22T23:27:45.746Z,5.90
2024-02-22T23:30:13.981Z,5.90
2024-02-22T23:32:41.539Z,5.90
2024-02-22T23:35:13.820Z,5.90
2024-02-22T23:37:42.570Z,5.90
2024-02-22T23:40:11.546Z,5.90
2024-02-22T23:42:39.449Z,5.90
2024-02-22T23:45:08.120Z,5.90
2024-02-22T23:47:35.862Z,5.90
2024-02-22T23:50:04.714Z,5.90
2024-02-22T23:52:32.373Z,5.90
2024-02-22T23:55:00.006Z,5.90
2024-02-22T23:57:28.473Z,5.80
2024-02-22T23:59:57.067Z,5.90
